Denver, Colorado
Traffic Map
Current Weather Conditions
Denver, Colorado
Broken Clouds
Broken Clouds
41°
Feels Like: 36°
Wind Chill: 36° Ceiling: 22000
Heat Index: 41° Visibility: 10mi
Dew Point: 32° Wind: 8mph
Humidity: 72% Direction: 130° (SE)
Pressure: 30.43in Gusts: 0mph
Raw Report DataKBKF 251158Z 13007KT 10SM SCT080 BKN220 05/00 A3043 RMK AO2A SLP270 T00490002 10092 20049 52015
Traffic Incident Summary
Active as of:
Severity:
Category:
InformationThere was an issue retrieving the traffic information for this location. Please try a different location or try again shortly.
Advertisements
Track Severe Weather on mobile